Time,TemperatureF,DewpointF,PressureIn,WindDirection,WindDirectionDegrees,WindSpeedMPH,WindSpeedGustMPH,Humidity,HourlyPrecipIn,Conditions,Clouds,dailyrainin,SoftwareType,DateUTC
2013-05-20 00:01:00,65.2,61.6,29.95,South,180,0.0,0.0,88,0.00,,,0.00,WUHU216HW,2013-05-20 04:01:00,
2013-05-20 00:06:00,65.2,61.6,29.95,South,180,0.0,0.7,88,0.00,,,0.00,WUHU216HW,2013-05-20 04:06:00,
2013-05-20 00:11:00,65.0,61.4,29.95,South,180,0.0,0.7,88,0.00,,,0.00,WUHU216HW,2013-05-20 04:11:00,
2013-05-20 00:16:00,64.8,61.6,29.94,South,180,0.0,0.0,89,0.00,,,0.00,WUHU216HW,2013-05-20 04:16:00,
2013-05-20 00:21:00,64.6,61.4,29.95,South,180,0.2,0.4,89,0.00,,,0.00,WUHU216HW,2013-05-20 04:21:00,
2013-05-20 00:26:00,64.4,61.2,29.94,South,180,0.4,0.9,89,0.00,,,0.00,WUHU216HW,2013-05-20 04:26:00,
2013-05-20 00:31:00,64.4,61.6,29.94,South,180,0.7,1.1,90,0.00,,,0.00,WUHU216HW,2013-05-20 04:31:00,
2013-05-20 00:36:00,64.4,61.6,29.94,SE,135,0.4,1.1,90,0.00,,,0.00,WUHU216HW,2013-05-20 04:36:00,
2013-05-20 00:41:00,64.3,61.4,29.94,SE,135,0.0,1.1,90,0.00,,,0.00,WUHU216HW,2013-05-20 04:41:00,
2013-05-20 00:46:00,64.3,61.4,29.95,SE,135,0.0,0.4,90,0.00,,,0.00,WUHU216HW,2013-05-20 04:46:00,
2013-05-20 00:51:00,64.1,61.2,29.95,SE,135,0.4,0.4,90,0.00,,,0.00,WUHU216HW,2013-05-20 04:51:00,
2013-05-20 00:56:00,63.9,61.0,29.95,SE,135,0.2,0.4,90,0.00,,,0.00,WUHU216HW,2013-05-20 04:56:00,
2013-05-20 01:01:00,63.9,61.0,29.95,SE,135,0.0,0.4,90,0.00,,,0.00,WUHU216HW,2013-05-20 05:01:00,
2013-05-20 01:06:00,63.9,61.0,29.95,SE,135,0.0,0.4,90,0.00,,,0.00,WUHU216HW,2013-05-20 05:06:00,
2013-05-20 01:11:00,64.1,61.2,29.95,SE,135,0.0,0.0,90,0.00,,,0.00,WUHU216HW,2013-05-20 05:11:00,
2013-05-20 01:16:00,64.1,61.2,29.96,SE,135,0.2,0.4,90,0.00,,,0.00,WUHU216HW,2013-05-20 05:16:00,
2013-05-20 01:21:00,64.3,61.7,29.96,SE,135,0.0,0.4,91,0.00,,,0.00,WUHU216HW,2013-05-20 05:21:00,
2013-05-20 01:26:00,64.4,61.8,29.96,SE,135,0.0,0.2,91,0.00,,,0.00,WUHU216HW,2013-05-20 05:26:00,
2013-05-20 01:31:00,64.4,61.8,29.96,SE,135,0.0,0.4,91,0.00,,,0.00,WUHU216HW,2013-05-20 05:31:00,
2013-05-20 01:36:00,64.6,62.0,29.96,SE,135,0.0,0.4,91,0.00,,,0.00,WUHU216HW,2013-05-20 05:36:00,
2013-05-20 01:41:00,64.6,62.0,29.95,SE,135,0.0,0.0,91,0.00,,,0.00,WUHU216HW,2013-05-20 05:41:00,
2013-05-20 01:46:00,64.8,62.2,29.95,SE,135,0.0,0.2,91,0.00,,,0.00,WUHU216HW,2013-05-20 05:46:00,
2013-05-20 01:51:00,64.8,62.2,29.94,SE,135,0.0,0.2,91,0.00,,,0.00,WUHU216HW,2013-05-20 05:51:00,
2013-05-20 01:56:00,64.8,62.2,29.94,SE,135,0.0,0.0,91,0.00,,,0.00,WUHU216HW,2013-05-20 05:56:00,
2013-05-20 02:01:00,64.8,62.2,29.95,SE,135,0.0,0.0,91,0.00,,,0.00,WUHU216HW,2013-05-20 06:01:00,
2013-05-20 02:06:00,64.8,62.2,29.94,SE,135,0.0,0.0,91,0.00,,,0.00,WUHU216HW,2013-05-20 06:06:00,
2013-05-20 02:11:00,64.8,62.2,29.95,SE,135,0.0,0.0,91,0.00,,,0.00,WUHU216HW,2013-05-20 06:11:00,
2013-05-20 02:16:00,64.8,62.2,29.95,SE,135,0.2,0.2,91,0.00,,,0.00,WUHU216HW,2013-05-20 06:16:00,
2013-05-20 02:21:00,64.6,62.0,29.95,SE,135,0.0,0.4,91,0.00,,,0.00,WUHU216HW,2013-05-20 06:21:00,
2013-05-20 02:26:00,64.6,62.0,29.95,SE,135,0.0,0.4,91,0.00,,,0.00,WUHU216HW,2013-05-20 06:26:00,
2013-05-20 02:31:00,64.8,62.2,29.94,SE,135,0.2,0.2,91,0.00,,,0.00,WUHU216HW,2013-05-20 06:31:00,
2013-05-20 02:36:00,64.8,62.2,29.95,SE,135,0.0,0.4,91,0.00,,,0.00,WUHU216HW,2013-05-20 06:36:00,
2013-05-20 02:41:00,64.8,62.2,29.95,SE,135,0.4,0.7,91,0.00,,,0.00,WUHU216HW,2013-05-20 06:41:00,
2013-05-20 02:46:00,65.0,62.7,29.95,SE,135,0.4,0.7,92,0.00,,,0.00,WUHU216HW,2013-05-20 06:46:00,
2013-05-20 02:51:00,64.8,62.5,29.95,SE,135,0.4,0.7,92,0.00,,,0.00,WUHU216HW,2013-05-20 06:51:00,
2013-05-20 02:56:00,64.8,62.5,29.95,SE,135,0.0,0.7,92,0.00,,,0.00,WUHU216HW,2013-05-20 06:56:00,
2013-05-20 03:01:00,64.8,62.5,29.95,SE,135,0.0,0.7,92,0.00,,,0.00,WUHU216HW,2013-05-20 07:01:00,
2013-05-20 03:06:00,64.6,62.3,29.95,SE,135,0.2,0.7,92,0.00,,,0.00,WUHU216HW,2013-05-20 07:06:00,
2013-05-20 03:11:00,64.4,62.1,29.95,SE,135,0.0,0.9,92,0.00,,,0.00,WUHU216HW,2013-05-20 07:11:00,
2013-05-20 03:16:00,64.4,62.1,29.95,SE,135,0.2,0.9,92,0.00,,,0.00,WUHU216HW,2013-05-20 07:16:00,
2013-05-20 03:21:00,64.3,61.9,29.95,SE,135,0.7,0.7,92,0.00,,,0.00,WUHU216HW,2013-05-20 07:21:00,
2013-05-20 03:26:00,64.3,61.9,29.94,SE,135,0.0,0.7,92,0.00,,,0.00,WUHU216HW,2013-05-20 07:26:00,
2013-05-20 03:31:00,64.1,61.7,29.94,SE,135,0.0,0.7,92,0.00,,,0.00,WUHU216HW,2013-05-20 07:31:00,
2013-05-20 03:36:00,64.1,61.7,29.94,SE,135,0.0,0.7,92,0.00,,,0.00,WUHU216HW,2013-05-20 07:36:00,
2013-05-20 03:41:00,64.1,61.7,29.94,SE,135,0.0,0.7,92,0.00,,,0.00,WUHU216HW,2013-05-20 07:41:00,
2013-05-20 03:46:00,64.1,61.7,29.94,SE,135,0.0,0.4,92,0.00,,,0.00,WUHU216HW,2013-05-20 07:46:00,
2013-05-20 03:51:00,64.1,61.7,29.95,SE,135,0.0,0.0,92,0.00,,,0.00,WUHU216HW,2013-05-20 07:51:00,
2013-05-20 03:56:00,63.9,61.6,29.95,SE,135,0.0,0.0,92,0.00,,,0.00,WUHU216HW,2013-05-20 07:56:00,
2013-05-20 04:01:00,63.7,61.4,29.95,SW,225,0.9,1.1,92,0.00,,,0.00,WUHU216HW,2013-05-20 08:01:00,
2013-05-20 04:06:00,63.7,61.4,29.95,SW,225,0.0,1.1,92,0.00,,,0.00,WUHU216HW,2013-05-20 08:06:00,
2013-05-20 04:11:00,63.7,61.4,29.95,SW,225,0.0,1.1,92,0.00,,,0.00,WUHU216HW,2013-05-20 08:11:00,
2013-05-20 04:16:00,63.7,61.4,29.95,SW,225,0.0,0.4,92,0.00,,,0.00,WUHU216HW,2013-05-20 08:16:00,
2013-05-20 04:21:00,63.7,61.4,29.95,SW,225,0.0,0.2,92,0.00,,,0.00,WUHU216HW,2013-05-20 08:21:00,
2013-05-20 04:26:00,63.7,61.4,29.95,SW,225,0.7,0.9,92,0.00,,,0.00,WUHU216HW,2013-05-20 08:26:00,
2013-05-20 04:31:00,63.7,61.4,29.95,SW,225,0.0,0.9,92,0.00,,,0.00,WUHU216HW,2013-05-20 08:31:00,
2013-05-20 04:36:00,63.5,61.2,29.95,SW,225,0.0,0.7,92,0.00,,,0.00,WUHU216HW,2013-05-20 08:36:00,
2013-05-20 04:41:00,63.5,61.2,29.95,SW,225,0.0,0.0,92,0.00,,,0.00,WUHU216HW,2013-05-20 08:41:00,
2013-05-20 04:46:00,63.5,61.6,29.95,SW,225,0.0,0.0,93,0.00,,,0.00,WUHU216HW,2013-05-20 08:46:00,
2013-05-20 04:51:00,63.7,61.4,29.94,SW,225,0.9,1.1,92,0.00,,,0.00,WUHU216HW,2013-05-20 08:51:00,
2013-05-20 04:56:00,63.7,61.8,29.94,SW,225,0.0,1.1,93,0.00,,,0.00,WUHU216HW,2013-05-20 08:56:00,
2013-05-20 05:01:00,63.7,61.8,29.94,SW,225,0.4,1.1,93,0.00,,,0.00,WUHU216HW,2013-05-20 09:01:00,
2013-05-20 05:06:00,63.7,61.8,29.94,SW,225,0.4,0.9,93,0.00,,,0.00,WUHU216HW,2013-05-20 09:06:00,
2013-05-20 05:11:00,63.9,61.9,29.94,SW,225,0.0,0.4,93,0.00,,,0.00,WUHU216HW,2013-05-20 09:11:00,
2013-05-20 05:16:00,63.9,61.9,29.94,SW,225,0.0,0.4,93,0.00,,,0.00,WUHU216HW,2013-05-20 09:16:00,
2013-05-20 05:21:00,63.9,61.9,29.94,SW,225,0.0,0.4,93,0.00,,,0.00,WUHU216HW,2013-05-20 09:21:00,
2013-05-20 05:26:00,63.7,61.8,29.93,SW,225,0.0,0.2,93,0.00,,,0.00,WUHU216HW,2013-05-20 09:26:00,
2013-05-20 05:31:00,63.7,61.8,29.94,SW,225,0.0,0.0,93,0.00,,,0.00,WUHU216HW,2013-05-20 09:31:00,
2013-05-20 05:36:00,63.7,61.8,29.94,SW,225,0.0,1.1,93,0.00,,,0.00,WUHU216HW,2013-05-20 09:36:00,
2013-05-20 05:41:00,63.7,61.8,29.94,SW,225,0.0,1.1,93,0.00,,,0.00,WUHU216HW,2013-05-20 09:41:00,
2013-05-20 05:46:00,63.7,61.8,29.93,SW,225,0.0,0.7,93,0.00,,,0.00,WUHU216HW,2013-05-20 09:46:00,
2013-05-20 05:51:00,63.9,61.9,29.93,SW,225,0.4,0.4,93,0.00,,,0.00,WUHU216HW,2013-05-20 09:51:00,
2013-05-20 05:56:00,64.1,62.1,29.94,SW,225,0.0,0.4,93,0.00,,,0.00,WUHU216HW,2013-05-20 09:56:00,
2013-05-20 06:01:00,64.1,62.1,29.93,SW,225,0.2,0.4,93,0.00,,,0.00,WUHU216HW,2013-05-20 10:01:00,
2013-05-20 06:06:00,64.1,62.1,29.94,SW,225,0.4,0.7,93,0.00,,,0.00,WUHU216HW,2013-05-20 10:06:00,
2013-05-20 06:11:00,64.3,62.3,29.94,WSW,248,0.4,1.6,93,0.00,,,0.00,WUHU216HW,2013-05-20 10:11:00,
2013-05-20 06:16:00,64.3,62.3,29.93,WNW,293,0.0,1.6,93,0.00,,,0.00,WUHU216HW,2013-05-20 10:16:00,
2013-05-20 06:21:00,64.3,62.3,29.94,WNW,293,0.2,1.1,93,0.00,,,0.00,WUHU216HW,2013-05-20 10:21:00,
2013-05-20 06:26:00,64.4,62.5,29.93,WNW,293,1.8,1.8,93,0.00,,,0.00,WUHU216HW,2013-05-20 10:26:00,
2013-05-20 06:31:00,64.3,62.3,29.93,West,270,0.7,1.8,93,0.00,,,0.00,WUHU216HW,2013-05-20 10:31:00,
2013-05-20 06:36:00,64.3,62.3,29.94,West,270,1.6,1.8,93,0.00,,,0.00,WUHU216HW,2013-05-20 10:36:00,
2013-05-20 06:41:00,64.3,62.3,29.94,West,270,0.0,1.6,93,0.00,,,0.00,WUHU216HW,2013-05-20 10:41:00,
2013-05-20 06:46:00,64.3,62.3,29.94,West,270,0.0,1.6,93,0.00,,,0.00,WUHU216HW,2013-05-20 10:46:00,
2013-05-20 06:51:00,64.4,62.5,29.95,West,270,0.0,0.0,93,0.00,,,0.00,WUHU216HW,2013-05-20 10:51:00,
2013-05-20 06:56:00,64.4,62.5,29.95,West,270,0.0,0.0,93,0.00,,,0.00,WUHU216HW,2013-05-20 10:56:00,
2013-05-20 07:01:00,64.4,62.5,29.96,West,270,0.9,0.9,93,0.00,,,0.00,WUHU216HW,2013-05-20 11:01:00,
2013-05-20 07:06:00,64.6,62.6,29.96,SSW,203,0.4,1.3,93,0.00,,,0.00,WUHU216HW,2013-05-20 11:06:00,
2013-05-20 07:11:00,64.6,62.6,29.96,SSW,203,0.0,1.3,93,0.00,,,0.00,WUHU216HW,2013-05-20 11:11:00,
2013-05-20 07:16:00,64.8,62.7,29.97,SSW,203,0.2,1.8,93,0.00,,,0.00,WUHU216HW,2013-05-20 11:16:00,
2013-05-20 07:21:00,65.0,62.9,29.97,SSW,203,0.4,1.8,93,0.00,,,0.00,WUHU216HW,2013-05-20 11:21:00,
2013-05-20 07:26:00,65.2,63.1,29.97,SSW,203,0.2,0.7,93,0.00,,,0.00,WUHU216HW,2013-05-20 11:26:00,
2013-05-20 07:31:00,65.3,63.3,29.97,SSW,203,0.2,0.7,93,0.00,,,0.00,WUHU216HW,2013-05-20 11:31:00,
2013-05-20 07:36:00,65.7,63.6,29.97,SSW,203,0.0,0.7,93,0.00,,,0.00,WUHU216HW,2013-05-20 11:36:00,
2013-05-20 07:41:00,65.9,63.7,29.97,SW,225,0.2,0.7,93,0.00,,,0.00,WUHU216HW,2013-05-20 11:41:00,
2013-05-20 07:46:00,65.9,63.7,29.98,SW,225,0.0,0.9,93,0.00,,,0.00,WUHU216HW,2013-05-20 11:46:00,
2013-05-20 07:51:00,66.2,64.1,29.98,SW,225,0.2,0.9,93,0.00,,,0.00,WUHU216HW,2013-05-20 11:51:00,
2013-05-20 07:56:00,66.6,64.8,29.98,SSW,203,0.2,1.8,94,0.00,,,0.00,WUHU216HW,2013-05-20 11:56:00,
2013-05-20 08:01:00,67.0,65.2,29.98,SW,225,0.0,1.8,94,0.00,,,0.00,WUHU216HW,2013-05-20 12:01:00,
2013-05-20 08:06:00,67.5,65.7,29.97,SW,225,0.9,0.9,94,0.00,,,0.00,WUHU216HW,2013-05-20 12:06:00,
2013-05-20 08:11:00,68.0,66.3,29.97,SW,225,1.6,1.6,94,0.00,,,0.00,WUHU216HW,2013-05-20 12:11:00,
2013-05-20 08:16:00,68.4,66.6,29.98,SSW,203,1.6,1.8,94,0.00,,,0.00,WUHU216HW,2013-05-20 12:16:00,
2013-05-20 08:21:00,68.4,66.6,29.98,ENE,68,1.1,1.8,94,0.00,,,0.00,WUHU216HW,2013-05-20 12:21:00,
2013-05-20 08:26:00,68.0,65.9,29.98,North,0,0.0,1.1,93,0.00,,,0.00,WUHU216HW,2013-05-20 12:26:00,
2013-05-20 08:31:00,68.2,66.1,29.98,WSW,248,0.4,1.1,93,0.00,,,0.00,WUHU216HW,2013-05-20 12:31:00,
2013-05-20 08:36:00,68.4,66.2,29.98,SSW,203,0.4,1.1,93,0.00,,,0.00,WUHU216HW,2013-05-20 12:36:00,
2013-05-20 08:41:00,68.8,66.6,29.98,SSW,203,1.8,1.8,93,0.00,,,0.00,WUHU216HW,2013-05-20 12:41:00,
2013-05-20 08:46:00,69.1,66.7,29.98,SSW,203,0.4,1.8,92,0.00,,,0.00,WUHU216HW,2013-05-20 12:46:00,
2013-05-20 08:51:00,69.5,67.1,29.99,NNE,23,0.4,1.8,92,0.00,,,0.00,WUHU216HW,2013-05-20 12:51:00,
2013-05-20 08:56:00,69.5,66.7,29.99,West,270,0.0,0.9,91,0.00,,,0.00,WUHU216HW,2013-05-20 12:56:00,
2013-05-20 09:01:00,69.7,66.9,29.99,NNE,23,0.4,1.1,91,0.00,,,0.00,WUHU216HW,2013-05-20 13:01:00,
2013-05-20 09:06:00,69.8,67.1,29.99,ENE,68,0.4,1.1,91,0.00,,,0.00,WUHU216HW,2013-05-20 13:06:00,
2013-05-20 09:11:00,70.2,67.4,29.99,NNE,23,0.4,1.1,91,0.00,,,0.00,WUHU216HW,2013-05-20 13:11:00,
2013-05-20 09:16:00,70.2,67.1,29.99,SSW,203,0.4,1.8,90,0.00,,,0.00,WUHU216HW,2013-05-20 13:16:00,
2013-05-20 09:21:00,70.0,67.0,29.99,WNW,293,0.2,1.8,90,0.00,,,0.00,WUHU216HW,2013-05-20 13:21:00,
2013-05-20 09:26:00,69.8,66.8,30.00,SW,225,0.4,0.9,90,0.00,,,0.00,WUHU216HW,2013-05-20 13:26:00,
2013-05-20 09:31:00,69.7,66.2,30.00,SSE,158,0.0,1.6,89,0.00,,,0.00,WUHU216HW,2013-05-20 13:31:00,
2013-05-20 09:36:00,69.5,66.1,30.00,ESE,113,0.9,1.6,89,0.00,,,0.00,WUHU216HW,2013-05-20 13:36:00,
2013-05-20 09:41:00,69.5,66.1,30.00,South,180,0.2,0.9,89,0.00,,,0.00,WUHU216HW,2013-05-20 13:41:00,
2013-05-20 09:46:00,69.8,66.4,30.00,North,0,0.4,0.9,89,0.00,,,0.00,WUHU216HW,2013-05-20 13:46:00,
2013-05-20 09:51:00,70.0,66.6,29.99,SW,225,0.0,1.3,89,0.00,,,0.00,WUHU216HW,2013-05-20 13:51:00,
2013-05-20 09:56:00,70.2,66.4,29.99,SSW,203,2.0,2.0,88,0.00,,,0.00,WUHU216HW,2013-05-20 13:56:00,
2013-05-20 10:02:00,70.4,66.6,29.99,SW,225,0.2,2.0,88,0.00,,,0.00,WUHU216HW,2013-05-20 14:02:00,
2013-05-20 10:07:00,70.7,67.0,29.99,SSW,203,0.9,1.6,88,0.00,,,0.00,WUHU216HW,2013-05-20 14:07:00,
2013-05-20 10:12:00,71.3,67.5,29.99,SSW,203,0.4,2.2,88,0.00,,,0.00,WUHU216HW,2013-05-20 14:12:00,
2013-05-20 10:17:00,71.6,67.6,29.99,SW,225,0.7,2.5,87,0.00,,,0.00,WUHU216HW,2013-05-20 14:17:00,
2013-05-20 10:22:00,72.0,68.0,29.99,SSW,203,0.4,2.5,87,0.00,,,0.00,WUHU216HW,2013-05-20 14:22:00,
2013-05-20 10:27:00,72.2,67.8,29.99,SW,225,1.3,1.8,86,0.00,,,0.00,WUHU216HW,2013-05-20 14:27:00,
2013-05-20 10:32:00,72.7,68.3,30.00,SW,225,0.9,1.8,86,0.00,,,0.00,WUHU216HW,2013-05-20 14:32:00,
2013-05-20 10:37:00,73.1,68.7,30.00,SSW,203,0.7,1.6,86,0.00,,,0.00,WUHU216HW,2013-05-20 14:37:00,
2013-05-20 10:42:00,73.4,68.7,30.00,NW,315,0.2,2.9,85,0.00,,,0.00,WUHU216HW,2013-05-20 14:42:00,
2013-05-20 10:47:00,73.6,67.9,30.00,ENE,68,0.9,2.9,82,0.00,,,0.00,WUHU216HW,2013-05-20 14:47:00,
2013-05-20 10:52:00,73.6,67.9,30.00,NW,315,0.9,2.2,82,0.00,,,0.00,WUHU216HW,2013-05-20 14:52:00,
2013-05-20 10:57:00,73.6,67.9,30.00,West,270,0.4,2.5,82,0.00,,,0.00,WUHU216HW,2013-05-20 14:57:00,
2013-05-20 11:02:00,73.8,68.1,30.00,WSW,248,1.8,2.7,82,0.00,,,0.00,WUHU216HW,2013-05-20 15:02:00,
2013-05-20 11:07:00,74.9,68.8,30.00,WSW,248,0.9,3.1,81,0.00,,,0.00,WUHU216HW,2013-05-20 15:07:00,
2013-05-20 11:12:00,76.1,69.6,30.01,SW,225,1.1,3.1,80,0.00,,,0.00,WUHU216HW,2013-05-20 15:12:00,
2013-05-20 11:17:00,77.0,69.7,30.01,WSW,248,0.0,3.1,78,0.00,,,0.00,WUHU216HW,2013-05-20 15:17:00,
2013-05-20 11:22:00,77.2,69.9,30.00,SW,225,0.2,1.1,78,0.00,,,0.00,WUHU216HW,2013-05-20 15:22:00,
2013-05-20 11:27:00,77.9,70.1,30.00,NE,45,1.3,1.3,77,0.00,,,0.00,WUHU216HW,2013-05-20 15:27:00,
2013-05-20 11:32:00,78.5,69.5,30.00,NE,45,0.4,3.4,74,0.00,,,0.00,WUHU216HW,2013-05-20 15:32:00,
2013-05-20 11:37:00,79.0,70.0,30.00,East,90,0.0,3.4,74,0.00,,,0.00,WUHU216HW,2013-05-20 15:37:00,
2013-05-20 11:42:00,79.7,70.8,30.00,SW,225,1.8,1.8,74,0.00,,,0.00,WUHU216HW,2013-05-20 15:42:00,
2013-05-20 11:47:00,79.7,69.5,30.00,SE,135,0.4,2.7,71,0.00,,,0.00,WUHU216HW,2013-05-20 15:47:00,
2013-05-20 11:52:00,79.4,69.6,30.00,SW,225,1.1,2.7,72,0.00,,,0.00,WUHU216HW,2013-05-20 15:52:00,
2013-05-20 11:57:00,79.4,69.1,30.00,ESE,113,0.4,2.5,71,0.00,,,0.00,WUHU216HW,2013-05-20 15:57:00,
2013-05-20 12:02:00,80.3,68.8,30.00,NE,45,0.9,3.4,68,0.00,,,0.00,WUHU216HW,2013-05-20 16:02:00,
2013-05-20 12:07:00,80.8,68.4,30.00,NE,45,1.1,3.6,66,0.00,,,0.00,WUHU216HW,2013-05-20 16:07:00,
2013-05-20 12:12:00,81.4,68.9,30.00,ENE,68,2.0,3.6,66,0.00,,,0.00,WUHU216HW,2013-05-20 16:12:00,
2013-05-20 12:17:00,82.1,69.5,30.00,East,90,2.0,2.0,66,0.00,,,0.00,WUHU216HW,2013-05-20 16:17:00,
2013-05-20 12:22:00,81.4,68.4,30.00,NE,45,0.0,4.7,65,0.00,,,0.00,WUHU216HW,2013-05-20 16:22:00,
2013-05-20 12:27:00,81.4,68.9,30.00,NW,315,1.3,4.7,66,0.00,,,0.00,WUHU216HW,2013-05-20 16:27:00,
2013-05-20 12:32:00,81.7,68.8,30.00,NNW,338,0.9,3.8,65,0.00,,,0.00,WUHU216HW,2013-05-20 16:32:00,
2013-05-20 12:37:00,81.5,67.7,29.99,NNE,23,2.9,5.1,63,0.00,,,0.00,WUHU216HW,2013-05-20 16:37:00,
2013-05-20 12:42:00,81.0,67.7,29.99,ENE,68,0.2,5.1,64,0.00,,,0.00,WUHU216HW,2013-05-20 16:42:00,
2013-05-20 12:47:00,81.2,67.8,29.99,NE,45,4.0,6.0,64,0.00,,,0.00,WUHU216HW,2013-05-20 16:47:00,
2013-05-20 12:52:00,81.7,68.3,29.99,NE,45,2.5,6.0,64,0.00,,,0.00,WUHU216HW,2013-05-20 16:52:00,
2013-05-20 12:57:00,81.2,67.8,29.99,NE,45,2.5,4.9,64,0.00,,,0.00,WUHU216HW,2013-05-20 16:57:00,
2013-05-20 13:02:00,81.7,68.8,29.98,North,0,0.7,4.9,65,0.00,,,0.00,WUHU216HW,2013-05-20 17:02:00,
2013-05-20 13:07:00,83.2,70.6,29.98,ENE,68,0.4,3.1,66,0.00,,,0.00,WUHU216HW,2013-05-20 17:07:00,
2013-05-20 13:12:00,84.4,70.5,29.98,SSW,203,0.0,2.9,63,0.00,,,0.00,WUHU216HW,2013-05-20 17:12:00,
2013-05-20 13:17:00,85.1,69.8,29.98,North,0,0.4,4.9,60,0.00,,,0.00,WUHU216HW,2013-05-20 17:17:00,
2013-05-20 13:22:00,85.7,69.8,29.98,NNE,23,3.1,4.9,59,0.00,,,0.00,WUHU216HW,2013-05-20 17:22:00,
2013-05-20 13:27:00,85.7,70.8,29.98,WSW,248,0.4,3.1,61,0.00,,,0.00,WUHU216HW,2013-05-20 17:27:00,
2013-05-20 13:32:00,86.2,71.6,29.98,SSW,203,0.4,3.1,62,0.00,,,0.00,WUHU216HW,2013-05-20 17:32:00,
2013-05-20 13:37:00,86.4,71.8,29.98,SSW,203,0.4,2.0,62,0.00,,,0.00,WUHU216HW,2013-05-20 17:37:00,
2013-05-20 13:42:00,86.6,71.6,29.98,ENE,68,1.8,2.5,61,0.00,,,0.00,WUHU216HW,2013-05-20 17:42:00,
2013-05-20 13:47:00,87.3,70.2,29.98,SW,225,2.0,3.6,57,0.00,,,0.00,WUHU216HW,2013-05-20 17:47:00,
2013-05-20 13:52:00,87.7,71.1,29.98,NW,315,0.2,3.6,58,0.00,,,0.00,WUHU216HW,2013-05-20 17:52:00,
2013-05-20 13:57:00,88.7,73.2,29.98,SSW,203,0.9,2.5,60,0.00,,,0.00,WUHU216HW,2013-05-20 17:57:00,
2013-05-20 14:02:00,89.1,71.9,29.97,SW,225,2.2,5.6,57,0.00,,,0.00,WUHU216HW,2013-05-20 18:02:00,
2013-05-20 14:07:00,88.7,71.6,29.97,SSW,203,2.5,5.6,57,0.00,,,0.00,WUHU216HW,2013-05-20 18:07:00,
2013-05-20 14:12:00,88.4,71.2,29.97,West,270,1.1,4.5,57,0.00,,,0.00,WUHU216HW,2013-05-20 18:12:00,
2013-05-20 14:17:00,88.2,71.7,29.97,WSW,248,0.9,4.5,58,0.00,,,0.00,WUHU216HW,2013-05-20 18:17:00,
2013-05-20 14:22:00,88.6,71.9,29.96,South,180,2.7,2.9,58,0.00,,,0.00,WUHU216HW,2013-05-20 18:22:00,
2013-05-20 14:27:00,88.6,70.8,29.96,SW,225,1.1,4.7,56,0.00,,,0.00,WUHU216HW,2013-05-20 18:27:00,
2013-05-20 14:32:00,88.7,71.0,29.96,NE,45,1.8,4.7,56,0.00,,,0.00,WUHU216HW,2013-05-20 18:32:00,
2013-05-20 14:37:00,88.7,69.9,29.96,NNE,23,1.8,3.4,54,0.00,,,0.00,WUHU216HW,2013-05-20 18:37:00,
2013-05-20 14:42:00,87.5,69.3,29.96,SSW,203,3.4,3.6,55,0.00,,,0.00,WUHU216HW,2013-05-20 18:42:00,
2013-05-20 14:47:00,87.5,70.4,29.96,East,90,0.7,3.6,57,0.00,,,0.00,WUHU216HW,2013-05-20 18:47:00,
2013-05-20 14:52:00,88.6,70.8,29.96,South,180,1.1,3.4,56,0.00,,,0.00,WUHU216HW,2013-05-20 18:52:00,
2013-05-20 14:57:00,88.7,69.4,29.95,ESE,113,4.7,4.7,53,0.00,,,0.00,WUHU216HW,2013-05-20 18:57:00,
2013-05-20 15:02:00,88.2,70.6,29.95,SSW,203,1.1,4.7,56,0.00,,,0.00,WUHU216HW,2013-05-20 19:02:00,
2013-05-20 15:07:00,88.6,70.8,29.95,SSW,203,0.9,4.9,56,0.00,,,0.00,WUHU216HW,2013-05-20 19:07:00,
2013-05-20 15:12:00,88.9,70.1,29.95,SW,225,0.9,4.9,54,0.00,,,0.00,WUHU216HW,2013-05-20 19:12:00,
2013-05-20 15:17:00,87.8,69.1,29.94,ENE,68,2.2,2.2,54,0.00,,,0.00,WUHU216HW,2013-05-20 19:17:00,
2013-05-20 15:22:00,87.1,68.9,29.94,NE,45,0.9,2.2,55,0.00,,,0.00,WUHU216HW,2013-05-20 19:22:00,
2013-05-20 15:27:00,87.5,69.8,29.94,SW,225,0.2,2.2,56,0.00,,,0.00,WUHU216HW,2013-05-20 19:27:00,
2013-05-20 15:32:00,88.0,69.3,29.93,ENE,68,1.8,2.5,54,0.00,,,0.00,WUHU216HW,2013-05-20 19:32:00,
2013-05-20 15:37:00,87.8,68.6,29.93,NNE,23,2.5,4.3,53,0.00,,,0.00,WUHU216HW,2013-05-20 19:37:00,
2013-05-20 15:42:00,88.2,69.5,29.94,NE,45,0.9,4.3,54,0.00,,,0.00,WUHU216HW,2013-05-20 19:42:00,
2013-05-20 15:47:00,89.6,71.3,29.94,South,180,0.9,3.4,55,0.00,,,0.00,WUHU216HW,2013-05-20 19:47:00,
2013-05-20 15:52:00,91.1,71.5,29.94,West,270,0.7,3.4,53,0.00,,,0.00,WUHU216HW,2013-05-20 19:52:00,
2013-05-20 15:57:00,91.4,69.6,29.94,NE,45,1.6,2.9,49,0.00,,,0.00,WUHU216HW,2013-05-20 19:57:00,
2013-05-20 16:02:00,91.6,70.9,29.94,SSW,203,2.0,4.7,51,0.00,,,0.00,WUHU216HW,2013-05-20 20:02:00,
2013-05-20 16:07:00,91.4,70.7,29.94,SSE,158,2.7,4.7,51,0.00,,,0.00,WUHU216HW,2013-05-20 20:07:00,
2013-05-20 16:12:00,91.3,70.0,29.94,ENE,68,0.9,3.1,50,0.00,,,0.00,WUHU216HW,2013-05-20 20:12:00,
2013-05-20 16:17:00,90.5,69.9,29.94,SSE,158,0.9,3.1,51,0.00,,,0.00,WUHU216HW,2013-05-20 20:17:00,
2013-05-20 16:22:00,91.1,70.9,29.94,SW,225,1.1,2.9,52,0.00,,,0.00,WUHU216HW,2013-05-20 20:22:00,
2013-05-20 16:27:00,91.4,71.3,29.94,ENE,68,0.4,2.9,52,0.00,,,0.00,WUHU216HW,2013-05-20 20:27:00,
2013-05-20 16:32:00,91.6,70.9,29.94,SW,225,2.7,4.0,51,0.00,,,0.00,WUHU216HW,2013-05-20 20:32:00,
2013-05-20 16:37:00,91.8,71.1,29.94,North,0,0.4,4.0,51,0.00,,,0.00,WUHU216HW,2013-05-20 20:37:00,
2013-05-20 16:42:00,92.0,70.7,29.94,SW,225,2.2,3.4,50,0.00,,,0.00,WUHU216HW,2013-05-20 20:42:00,
2013-05-20 16:47:00,92.0,71.2,29.93,SSW,203,1.8,4.0,51,0.00,,,0.00,WUHU216HW,2013-05-20 20:47:00,
2013-05-20 16:52:00,92.0,71.2,29.93,South,180,0.9,4.0,51,0.00,,,0.00,WUHU216HW,2013-05-20 20:52:00,
2013-05-20 16:57:00,91.8,70.6,29.93,WSW,248,0.4,4.0,50,0.00,,,0.00,WUHU216HW,2013-05-20 20:57:00,
2013-05-20 17:02:00,91.6,70.9,29.93,NW,315,0.7,4.0,51,0.00,,,0.00,WUHU216HW,2013-05-20 21:02:00,
2013-05-20 17:07:00,91.3,70.6,29.93,SSW,203,1.1,4.9,51,0.00,,,0.00,WUHU216HW,2013-05-20 21:07:00,
2013-05-20 17:12:00,91.3,70.6,29.93,NNW,338,0.4,4.9,51,0.00,,,0.00,WUHU216HW,2013-05-20 21:12:00,
2013-05-20 17:17:00,91.1,70.9,29.93,SSW,203,2.9,3.4,52,0.00,,,0.00,WUHU216HW,2013-05-20 21:17:00,
2013-05-20 17:22:00,90.9,70.8,29.93,WSW,248,0.4,3.4,52,0.00,,,0.00,WUHU216HW,2013-05-20 21:22:00,
2013-05-20 17:27:00,91.1,70.9,29.93,SE,135,3.4,3.4,52,0.00,,,0.00,WUHU216HW,2013-05-20 21:27:00,
2013-05-20 17:32:00,91.1,70.4,29.92,North,0,0.7,4.3,51,0.00,,,0.00,WUHU216HW,2013-05-20 21:32:00,
2013-05-20 17:37:00,90.4,70.3,29.92,SSE,158,1.6,4.3,52,0.00,,,0.00,WUHU216HW,2013-05-20 21:37:00,
2013-05-20 17:42:00,90.0,70.0,29.92,WSW,248,0.9,4.3,52,0.00,,,0.00,WUHU216HW,2013-05-20 21:42:00,
2013-05-20 17:47:00,89.3,69.3,29.93,SW,225,1.1,4.3,52,0.00,,,0.00,WUHU216HW,2013-05-20 21:47:00,
2013-05-20 17:52:00,88.4,69.0,29.93,SSW,203,0.2,2.7,53,0.00,,,0.00,WUHU216HW,2013-05-20 21:52:00,
2013-05-20 17:57:00,87.8,69.1,29.93,SW,225,0.4,1.8,54,0.00,,,0.00,WUHU216HW,2013-05-20 21:57:00,
2013-05-20 18:02:00,87.3,68.6,29.93,SSW,203,1.6,3.4,54,0.00,,,0.00,WUHU216HW,2013-05-20 22:02:00,
2013-05-20 18:07:00,86.8,68.7,29.92,SSW,203,1.6,3.4,55,0.00,,,0.00,WUHU216HW,2013-05-20 22:07:00,
2013-05-20 18:12:00,87.1,69.5,29.93,SSW,203,0.2,2.2,56,0.00,,,0.00,WUHU216HW,2013-05-20 22:12:00,
2013-05-20 18:17:00,87.5,69.3,29.93,SW,225,0.9,2.0,55,0.00,,,0.00,WUHU216HW,2013-05-20 22:17:00,
2013-05-20 18:22:00,87.5,69.3,29.92,South,180,0.7,2.0,55,0.00,,,0.00,WUHU216HW,2013-05-20 22:22:00,
2013-05-20 18:27:00,86.9,68.8,29.92,SSW,203,0.9,1.8,55,0.00,,,0.00,WUHU216HW,2013-05-20 22:27:00,
2013-05-20 18:32:00,86.2,68.7,29.92,SSW,203,0.0,1.8,56,0.00,,,0.00,WUHU216HW,2013-05-20 22:32:00,
2013-05-20 18:37:00,85.9,68.9,29.92,SSW,203,0.7,0.9,57,0.00,,,0.00,WUHU216HW,2013-05-20 22:37:00,
2013-05-20 18:42:00,85.7,69.2,29.91,SSW,203,0.4,1.6,58,0.00,,,0.00,WUHU216HW,2013-05-20 22:42:00,
2013-05-20 18:47:00,85.5,69.0,29.91,SSW,203,0.2,1.6,58,0.00,,,0.00,WUHU216HW,2013-05-20 22:47:00,
2013-05-20 18:52:00,85.3,68.9,29.91,SSW,203,0.0,1.1,58,0.00,,,0.00,WUHU216HW,2013-05-20 22:52:00,
2013-05-20 18:57:00,85.1,68.7,29.91,SSW,203,0.0,0.4,58,0.00,,,0.00,WUHU216HW,2013-05-20 22:57:00,
2013-05-20 19:02:00,84.8,69.0,29.91,SSW,203,0.0,0.4,59,0.00,,,0.00,WUHU216HW,2013-05-20 23:02:00,
2013-05-20 19:07:00,84.4,68.6,29.91,SSW,203,0.0,0.7,59,0.00,,,0.00,WUHU216HW,2013-05-20 23:07:00,
2013-05-20 19:12:00,83.9,68.6,29.91,SW,225,0.0,1.6,60,0.00,,,0.00,WUHU216HW,2013-05-20 23:12:00,
2013-05-20 19:17:00,83.2,68.3,29.90,SW,225,0.0,1.6,61,0.00,,,0.00,WUHU216HW,2013-05-20 23:17:00,
2013-05-20 19:22:00,82.6,67.8,29.90,SW,225,0.7,0.7,61,0.00,,,0.00,WUHU216HW,2013-05-20 23:22:00,
2013-05-20 19:27:00,82.1,67.2,29.90,SW,225,0.2,1.1,61,0.00,,,0.00,WUHU216HW,2013-05-20 23:27:00,
2013-05-20 19:32:00,81.4,67.1,29.90,SW,225,0.7,1.1,62,0.00,,,0.00,WUHU216HW,2013-05-20 23:32:00,
2013-05-20 19:37:00,80.8,66.6,29.90,SW,225,0.0,0.9,62,0.00,,,0.00,WUHU216HW,2013-05-20 23:37:00,
2013-05-20 19:42:00,80.5,66.7,29.90,SW,225,1.1,1.1,63,0.00,,,0.00,WUHU216HW,2013-05-20 23:42:00,
2013-05-20 19:47:00,80.1,66.8,29.90,SW,225,0.0,1.1,64,0.00,,,0.00,WUHU216HW,2013-05-20 23:47:00,
2013-05-20 19:52:00,79.6,66.8,29.90,SW,225,0.0,1.1,65,0.00,,,0.00,WUHU216HW,2013-05-20 23:52:00,
2013-05-20 19:57:00,79.2,66.9,29.91,SW,225,0.0,0.9,66,0.00,,,0.00,WUHU216HW,2013-05-20 23:57:00,
2013-05-20 20:02:00,78.7,66.3,29.91,SSW,203,0.4,1.1,66,0.00,,,0.00,WUHU216HW,2013-05-21 00:02:00,
2013-05-20 20:07:00,78.5,66.2,29.91,SSW,203,1.1,1.1,66,0.00,,,0.00,WUHU216HW,2013-05-21 00:07:00,
2013-05-20 20:12:00,78.1,66.2,29.91,SSW,203,0.0,1.1,67,0.00,,,0.00,WUHU216HW,2013-05-21 00:12:00,
2013-05-20 20:17:00,77.6,66.3,29.91,SSW,203,0.0,0.7,68,0.00,,,0.00,WUHU216HW,2013-05-21 00:17:00,
2013-05-20 20:22:00,77.2,65.9,29.91,SSW,203,0.0,0.0,68,0.00,,,0.00,WUHU216HW,2013-05-21 00:22:00,
2013-05-20 20:27:00,76.9,66.0,29.91,SSW,203,0.0,0.0,69,0.00,,,0.00,WUHU216HW,2013-05-21 00:27:00,
2013-05-20 20:32:00,76.3,65.9,29.91,SSW,203,0.0,0.0,70,0.00,,,0.00,WUHU216HW,2013-05-21 00:32:00,
2013-05-20 20:37:00,76.0,65.9,29.91,SSW,203,0.4,0.4,71,0.00,,,0.00,WUHU216HW,2013-05-21 00:37:00,
2013-05-20 20:42:00,75.4,65.8,29.91,ESE,113,0.4,1.1,72,0.00,,,0.00,WUHU216HW,2013-05-21 00:42:00,
2013-05-20 20:47:00,74.9,66.1,29.91,East,90,0.4,1.1,74,0.00,,,0.00,WUHU216HW,2013-05-21 00:47:00,
2013-05-20 20:52:00,74.5,65.7,29.91,East,90,0.4,1.1,74,0.00,,,0.00,WUHU216HW,2013-05-21 00:52:00,
2013-05-20 20:57:00,74.2,65.3,29.91,East,90,0.0,0.7,74,0.00,,,0.00,WUHU216HW,2013-05-21 00:57:00,
2013-05-20 21:02:00,73.6,65.3,29.92,East,90,0.4,0.7,75,0.00,,,0.00,WUHU216HW,2013-05-21 01:02:00,
2013-05-20 21:07:00,73.3,65.3,29.92,WSW,248,2.5,2.5,76,0.00,,,0.00,WUHU216HW,2013-05-21 01:07:00,
2013-05-20 21:12:00,73.3,65.6,29.92,West,270,0.0,2.7,77,0.00,,,0.00,WUHU216HW,2013-05-21 01:12:00,
2013-05-20 21:17:00,73.4,65.8,29.92,NW,315,0.2,2.7,77,0.00,,,0.00,WUHU216HW,2013-05-21 01:17:00,
2013-05-20 21:22:00,73.4,66.3,29.92,NNE,23,0.7,1.1,78,0.00,,,0.00,WUHU216HW,2013-05-21 01:22:00,
2013-05-20 21:27:00,73.8,66.2,29.92,NNE,23,0.0,1.1,77,0.00,,,0.00,WUHU216HW,2013-05-21 01:27:00,
2013-05-20 21:32:00,73.8,66.2,29.92,NNE,23,0.0,0.7,77,0.00,,,0.00,WUHU216HW,2013-05-21 01:32:00,
2013-05-20 21:37:00,73.8,66.2,29.93,NNE,23,0.0,0.0,77,0.00,,,0.00,WUHU216HW,2013-05-21 01:37:00,
2013-05-20 21:42:00,73.8,66.2,29.93,NE,45,0.0,0.0,77,0.00,,,0.00,WUHU216HW,2013-05-21 01:42:00,
2013-05-20 21:47:00,73.6,66.0,29.93,NE,45,0.0,0.0,77,0.00,,,0.00,WUHU216HW,2013-05-21 01:47:00,
2013-05-20 21:52:00,73.4,65.8,29.93,NE,45,0.0,0.0,77,0.00,,,0.00,WUHU216HW,2013-05-21 01:52:00,
2013-05-20 21:57:00,73.3,66.1,29.93,NE,45,0.0,0.0,78,0.00,,,0.00,WUHU216HW,2013-05-21 01:57:00,
2013-05-20 22:02:00,72.9,65.7,29.93,NE,45,0.2,0.4,78,0.00,,,0.00,WUHU216HW,2013-05-21 02:02:00,
2013-05-20 22:07:00,72.7,65.9,29.93,ENE,68,0.0,1.1,79,0.00,,,0.00,WUHU216HW,2013-05-21 02:07:00,
2013-05-20 22:12:00,72.4,65.2,29.93,ENE,68,0.0,1.1,78,0.00,,,0.00,WUHU216HW,2013-05-21 02:12:00,
2013-05-20 22:17:00,72.0,65.2,29.93,ENE,68,0.0,0.0,79,0.00,,,0.00,WUHU216HW,2013-05-21 02:17:00,
2013-05-20 22:22:00,71.8,65.0,29.93,ENE,68,0.0,0.2,79,0.00,,,0.00,WUHU216HW,2013-05-21 02:22:00,
2013-05-20 22:27:00,71.6,65.2,29.93,ENE,68,0.0,0.4,80,0.00,,,0.00,WUHU216HW,2013-05-21 02:27:00,
2013-05-20 22:32:00,71.3,64.8,29.93,ENE,68,0.0,0.4,80,0.00,,,0.00,WUHU216HW,2013-05-21 02:32:00,
2013-05-20 22:37:00,71.1,64.6,29.93,ENE,68,0.0,0.2,80,0.00,,,0.00,WUHU216HW,2013-05-21 02:37:00,
2013-05-20 22:42:00,70.9,64.8,29.93,ENE,68,0.0,0.2,81,0.00,,,0.00,WUHU216HW,2013-05-21 02:42:00,
2013-05-20 22:47:00,70.9,64.8,29.93,ENE,68,0.0,0.0,81,0.00,,,0.00,WUHU216HW,2013-05-21 02:47:00,
2013-05-20 22:52:00,70.7,64.6,29.93,ENE,68,0.0,0.0,81,0.00,,,0.00,WUHU216HW,2013-05-21 02:52:00,
2013-05-20 22:57:00,70.6,64.8,29.93,ENE,68,0.0,0.0,82,0.00,,,0.00,WUHU216HW,2013-05-21 02:57:00,
2013-05-20 23:02:00,70.6,64.8,29.93,ENE,68,0.7,0.7,82,0.00,,,0.00,WUHU216HW,2013-05-21 03:02:00,
2013-05-20 23:07:00,70.4,64.9,29.93,WSW,248,0.4,0.9,83,0.00,,,0.00,WUHU216HW,2013-05-21 03:07:00,
2013-05-20 23:12:00,70.4,64.9,29.93,WSW,248,0.0,0.9,83,0.00,,,0.00,WUHU216HW,2013-05-21 03:12:00,
2013-05-20 23:17:00,70.4,64.9,29.93,WSW,248,0.0,0.7,83,0.00,,,0.00,WUHU216HW,2013-05-21 03:17:00,
2013-05-20 23:22:00,70.2,64.7,29.93,WSW,248,0.0,0.4,83,0.00,,,0.00,WUHU216HW,2013-05-21 03:22:00,
2013-05-20 23:27:00,70.0,64.5,29.93,WSW,248,0.0,0.4,83,0.00,,,0.00,WUHU216HW,2013-05-21 03:27:00,
2013-05-20 23:32:00,69.8,64.4,29.93,WSW,248,0.0,0.0,83,0.00,,,0.00,WUHU216HW,2013-05-21 03:32:00,
2013-05-20 23:37:00,69.7,64.3,29.93,WSW,248,0.0,0.0,83,0.00,,,0.00,WUHU216HW,2013-05-21 03:37:00,
2013-05-20 23:42:00,69.5,64.4,29.92,WSW,248,0.0,0.0,84,0.00,,,0.00,WUHU216HW,2013-05-21 03:42:00,
2013-05-20 23:47:00,69.3,64.3,29.92,WSW,248,0.4,1.1,84,0.00,,,0.00,WUHU216HW,2013-05-21 03:47:00,
2013-05-20 23:52:00,69.1,64.1,29.92,WSW,248,0.0,1.1,84,0.00,,,0.00,WUHU216HW,2013-05-21 03:52:00,
2013-05-20 23:57:00,69.1,64.1,29.92,WSW,248,0.0,0.0,84,0.00,,,0.00,WUHU216HW,2013-05-21 03:57:00,